createdAt,value
2023-03-11T00:00:02.353Z,26.12
2023-03-11T00:02:34.058Z,26.10
2023-03-11T00:05:04.219Z,26.12
2023-03-11T00:07:34.446Z,26.12
2023-03-11T00:10:05.405Z,26.03
2023-03-11T00:12:35.656Z,26.03
2023-03-11T00:15:05.882Z,26.01
2023-03-11T00:17:36.072Z,26.01
2023-03-11T00:20:08.188Z,26.01
2023-03-11T00:22:38.389Z,25.99
2023-03-11T00:25:08.514Z,25.93
2023-03-11T00:27:38.709Z,25.89
2023-03-11T00:30:09.526Z,25.86
2023-03-11T00:32:39.860Z,25.88
2023-03-11T00:35:15.365Z,25.86
2023-03-11T00:37:47.064Z,25.85
2023-03-11T00:40:20.395Z,25.84
2023-03-11T00:42:50.618Z,25.81
2023-03-11T00:45:21.070Z,25.81
2023-03-11T00:47:52.590Z,25.79
2023-03-11T00:50:31.417Z,25.85
2023-03-11T00:53:02.435Z,25.81
2023-03-11T00:55:34.857Z,25.75
2023-03-11T00:58:09.684Z,25.77
2023-03-11T01:01:18.380Z,25.74
2023-03-11T01:03:48.835Z,25.74
2023-03-11T01:06:19.516Z,25.77
2023-03-11T01:08:49.221Z,25.78
2023-03-11T01:11:19.398Z,25.82
2023-03-11T01:13:49.770Z,25.79
2023-03-11T01:16:20.146Z,25.77
2023-03-11T01:18:51.927Z,25.71
2023-03-11T01:21:22.040Z,25.69
2023-03-11T01:23:51.743Z,25.65
2023-03-11T01:26:21.606Z,25.69
2023-03-11T01:28:51.711Z,25.68
2023-03-11T01:31:21.682Z,25.61
2023-03-11T01:33:53.316Z,25.47
2023-03-11T01:36:23.586Z,25.52
2023-03-11T01:38:54.081Z,25.58
2023-03-11T01:41:25.436Z,25.44
2023-03-11T01:43:56.612Z,25.48
2023-03-11T01:47:01.105Z,25.50
2023-03-11T01:49:34.555Z,25.41
2023-03-11T01:52:10.851Z,25.44
2023-03-11T01:54:51.814Z,25.41
2023-03-11T01:57:23.867Z,25.33
2023-03-11T01:59:59.030Z,25.17
2023-03-11T02:02:47.161Z,25.04
2023-03-11T02:05:18.522Z,25.04
2023-03-11T02:07:49.424Z,25.17
2023-03-11T02:10:21.485Z,25.17
2023-03-11T02:12:53.316Z,25.23
2023-03-11T02:15:27.377Z,25.19
2023-03-11T02:18:03.446Z,25.19
2023-03-11T02:21:04.493Z,25.23
2023-03-11T02:23:57.379Z,25.28
2023-03-11T02:26:42.263Z,25.28
2023-03-11T02:29:13.709Z,25.21
2023-03-11T02:31:45.783Z,24.94
2023-03-11T02:34:27.748Z,24.89
2023-03-11T02:36:58.288Z,24.99
2023-03-11T02:39:56.270Z,25.06
2023-03-11T02:42:33.360Z,25.10
2023-03-11T02:45:15.792Z,25.16
2023-03-11T02:47:47.904Z,25.11
2023-03-11T02:50:20.778Z,25.11
2023-03-11T02:52:51.605Z,25.03
2023-03-11T02:55:22.851Z,25.00
2023-03-11T02:57:53.471Z,25.02
2023-03-11T03:00:23.961Z,25.06
2023-03-11T03:03:00.331Z,25.06
2023-03-11T03:05:31.469Z,25.04
2023-03-11T03:08:03.984Z,25.03
2023-03-11T03:10:34.172Z,25.02
2023-03-11T03:13:05.684Z,25.03
2023-03-11T03:15:35.929Z,24.91
2023-03-11T03:18:06.325Z,24.96
2023-03-11T03:20:36.663Z,24.97
2023-03-11T03:23:07.333Z,24.96
2023-03-11T03:25:36.993Z,24.97
2023-03-11T03:28:10.244Z,24.90
2023-03-11T03:30:42.400Z,24.89
2023-03-11T03:33:13.736Z,24.87
2023-03-11T03:35:46.441Z,24.91
2023-03-11T03:38:29.141Z,24.90
2023-03-11T03:40:59.306Z,24.90
2023-03-11T03:43:28.943Z,24.91
2023-03-11T03:46:04.394Z,24.89
2023-03-11T03:48:41.146Z,24.91
2023-03-11T03:51:14.759Z,24.84
2023-03-11T03:54:04.954Z,24.68
2023-03-11T03:56:34.605Z,24.49
2023-03-11T03:59:04.956Z,24.58
2023-03-11T04:01:41.330Z,24.66
2023-03-11T04:04:11.671Z,24.66
2023-03-11T04:06:41.993Z,24.68
2023-03-11T04:09:13.959Z,24.63
2023-03-11T04:11:44.470Z,24.66
2023-03-11T04:14:17.019Z,24.65
2023-03-11T04:16:54.535Z,24.63
2023-03-11T04:19:24.936Z,24.66
2023-03-11T04:21:55.140Z,24.59
2023-03-11T04:24:27.609Z,24.59
2023-03-11T04:26:58.002Z,24.58
2023-03-11T04:29:28.389Z,24.53
2023-03-11T04:31:58.107Z,24.53
2023-03-11T04:34:28.380Z,24.51
2023-03-11T04:36:58.792Z,24.52
2023-03-11T04:39:34.113Z,24.47
2023-03-11T04:42:04.589Z,24.39
2023-03-11T04:44:38.188Z,24.22
2023-03-11T04:47:08.947Z,24.00
2023-03-11T04:49:39.900Z,24.04
2023-03-11T04:52:10.229Z,24.19
2023-03-11T04:54:41.031Z,24.18
2023-03-11T04:57:11.205Z,24.25
2023-03-11T04:59:44.974Z,24.24
2023-03-11T05:02:17.153Z,24.21
2023-03-11T05:04:55.336Z,24.17
2023-03-11T05:07:25.633Z,24.19
2023-03-11T05:09:56.354Z,24.24
2023-03-11T05:12:26.686Z,24.24
2023-03-11T05:14:57.530Z,24.21
2023-03-11T05:17:27.964Z,24.25
2023-03-11T05:19:58.760Z,24.22
2023-03-11T05:22:34.181Z,24.19
2023-03-11T05:25:04.565Z,24.09
2023-03-11T05:27:35.031Z,23.88
2023-03-11T05:30:05.776Z,23.67
2023-03-11T05:32:38.462Z,23.63
2023-03-11T05:35:10.139Z,23.75
2023-03-11T05:37:40.555Z,23.82
2023-03-11T05:40:13.514Z,23.91
2023-03-11T05:42:43.633Z,23.97
2023-03-11T05:45:16.622Z,23.91
2023-03-11T05:47:49.585Z,23.80
2023-03-11T05:50:20.503Z,23.70
2023-03-11T05:52:52.375Z,23.74
2023-03-11T05:55:24.247Z,23.85
2023-03-11T05:57:54.561Z,23.90
2023-03-11T06:00:25.114Z,23.91
2023-03-11T06:02:56.497Z,23.94
2023-03-11T06:05:26.907Z,23.96
2023-03-11T06:07:58.867Z,23.97
2023-03-11T06:10:28.493Z,23.94
2023-03-11T06:12:58.362Z,23.67
2023-03-11T06:15:31.997Z,23.57
2023-03-11T06:18:01.749Z,23.50
2023-03-11T06:20:32.103Z,23.46
2023-03-11T06:23:02.360Z,23.47
2023-03-11T06:25:32.053Z,23.45
2023-03-11T06:28:02.817Z,23.57
2023-03-11T06:30:33.319Z,23.70
2023-03-11T06:33:09.192Z,23.78
2023-03-11T06:35:39.342Z,23.78
2023-03-11T06:38:09.010Z,23.77
2023-03-11T06:40:40.327Z,23.75
2023-03-11T06:43:30.000Z,23.74
2023-03-11T06:46:01.950Z,23.74
2023-03-11T06:48:32.331Z,23.73
2023-03-11T06:51:02.319Z,23.75
2023-03-11T06:53:33.115Z,23.73
2023-03-11T06:56:12.901Z,23.75
2023-03-11T06:58:53.385Z,23.64
2023-03-11T07:01:26.467Z,23.43
2023-03-11T07:03:58.745Z,23.45
2023-03-11T07:06:30.781Z,23.46
2023-03-11T07:09:06.751Z,23.40
2023-03-11T07:11:40.462Z,23.30
2023-03-11T07:14:14.920Z,23.17
2023-03-11T07:16:50.697Z,23.29
2023-03-11T07:19:29.102Z,23.36
2023-03-11T07:21:58.762Z,23.50
2023-03-11T07:24:28.626Z,23.57
2023-03-11T07:26:58.317Z,23.58
2023-03-11T07:29:28.127Z,23.61
2023-03-11T07:31:57.831Z,23.56
2023-03-11T07:34:27.965Z,23.50
2023-03-11T07:36:57.596Z,23.45
2023-03-11T07:39:27.389Z,23.40
2023-03-11T07:41:57.079Z,23.29
2023-03-11T07:44:36.196Z,23.12
2023-03-11T07:47:08.746Z,23.22
2023-03-11T07:49:40.074Z,23.23
2023-03-11T07:52:10.315Z,23.27
2023-03-11T07:54:39.940Z,23.20
2023-03-11T07:57:14.213Z,23.08
2023-03-11T07:59:44.622Z,22.96
2023-03-11T08:02:14.074Z,22.95
2023-03-11T08:04:44.005Z,22.94
2023-03-11T08:07:13.969Z,22.85
2023-03-11T08:09:44.191Z,22.81
2023-03-11T08:12:14.442Z,22.78
2023-03-11T08:14:44.998Z,22.85
2023-03-11T08:17:15.005Z,22.99
2023-03-11T08:19:45.159Z,22.92
2023-03-11T08:22:15.339Z,22.92
2023-03-11T08:24:44.925Z,23.00
2023-03-11T08:27:14.945Z,23.15
2023-03-11T08:29:45.331Z,23.26
2023-03-11T08:32:15.602Z,23.13
2023-03-11T08:34:45.836Z,22.96
2023-03-11T08:37:16.180Z,22.89
2023-03-11T08:39:46.320Z,22.79
2023-03-11T08:42:17.826Z,22.85
2023-03-11T08:44:48.088Z,22.98
2023-03-11T08:47:18.176Z,23.03
2023-03-11T08:49:48.380Z,22.92
2023-03-11T08:52:18.011Z,22.78
2023-03-11T08:54:48.100Z,22.72
2023-03-11T08:57:17.829Z,22.71
2023-03-11T08:59:47.606Z,22.73
2023-03-11T09:02:17.919Z,22.73
2023-03-11T09:04:48.151Z,22.78
2023-03-11T09:07:39.186Z,22.89
2023-03-11T09:10:10.066Z,22.84
2023-03-11T09:12:40.174Z,22.84
2023-03-11T09:15:11.754Z,22.71
2023-03-11T09:17:41.952Z,22.64
2023-03-11T09:20:13.833Z,22.61
2023-03-11T09:22:43.959Z,22.64
2023-03-11T09:25:14.360Z,22.76
2023-03-11T09:27:44.474Z,22.88
2023-03-11T09:30:14.250Z,22.88
2023-03-11T09:32:44.421Z,22.73
2023-03-11T09:35:14.708Z,22.61
2023-03-11T09:37:44.397Z,22.59
2023-03-11T09:40:25.400Z,22.68
2023-03-11T09:43:25.724Z,22.69
2023-03-11T09:46:24.047Z,22.71
2023-03-11T09:49:09.220Z,22.59
2023-03-11T09:51:46.658Z,22.62
2023-03-11T09:54:16.923Z,22.86
2023-03-11T09:56:47.303Z,23.05
2023-03-11T09:59:25.189Z,23.10
2023-03-11T10:01:55.588Z,23.03
2023-03-11T10:04:41.585Z,23.00
2023-03-11T10:07:24.102Z,22.89
2023-03-11T10:09:55.204Z,22.96
2023-03-11T10:12:39.978Z,23.12
2023-03-11T10:15:24.772Z,23.23
2023-03-11T10:18:36.328Z,23.31
2023-03-11T10:21:24.506Z,23.31
2023-03-11T10:24:15.518Z,23.37
2023-03-11T10:27:00.531Z,23.37
2023-03-11T10:29:46.926Z,23.45
2023-03-11T10:32:37.800Z,23.43
2023-03-11T10:35:23.705Z,23.49
2023-03-11T10:38:04.583Z,23.60
2023-03-11T10:40:37.682Z,23.50
2023-03-11T10:43:18.966Z,23.16
2023-03-11T10:45:52.325Z,23.05
2023-03-11T10:48:23.918Z,22.96
2023-03-11T10:51:16.272Z,23.02
2023-03-11T10:53:52.658Z,23.24
2023-03-11T10:56:33.691Z,23.42
2023-03-11T10:59:27.740Z,23.58
2023-03-11T11:01:59.135Z,23.37
2023-03-11T11:04:37.777Z,23.39
2023-03-11T11:07:42.213Z,23.50
2023-03-11T11:10:17.947Z,23.36
2023-03-11T11:13:15.430Z,23.50
2023-03-11T11:16:07.579Z,23.47
2023-03-11T11:18:49.454Z,23.57
2023-03-11T11:21:34.551Z,23.67
2023-03-11T11:24:27.135Z,23.66
2023-03-11T11:27:24.537Z,23.87
2023-03-11T11:30:12.421Z,24.01
2023-03-11T11:32:43.525Z,24.02
2023-03-11T11:35:24.618Z,24.12
2023-03-11T11:38:01.570Z,23.98
2023-03-11T11:40:34.305Z,23.97
2023-03-11T11:43:48.012Z,24.15
2023-03-11T11:46:22.039Z,24.33
2023-03-11T11:48:57.985Z,24.48
2023-03-11T11:51:34.119Z,24.58
2023-03-11T11:54:36.897Z,24.59
2023-03-11T11:57:15.836Z,24.75
2023-03-11T11:59:46.861Z,24.82
2023-03-11T12:02:36.917Z,24.86
2023-03-11T12:05:23.521Z,24.90
2023-03-11T12:08:02.680Z,24.99
2023-03-11T12:10:56.428Z,25.14
2023-03-11T12:13:52.163Z,25.20
2023-03-11T12:16:31.492Z,25.34
2023-03-11T12:19:11.850Z,25.38
2023-03-11T12:21:57.175Z,25.55
2023-03-11T12:24:35.656Z,25.72
2023-03-11T12:27:31.386Z,25.82
2023-03-11T12:30:12.308Z,25.99
2023-03-11T12:32:51.280Z,26.09
2023-03-11T12:35:31.415Z,26.18
2023-03-11T12:38:34.277Z,26.30
2023-03-11T12:41:08.591Z,26.39
2023-03-11T12:43:38.719Z,26.46
2023-03-11T12:46:14.561Z,26.64
2023-03-11T12:49:10.550Z,26.81
2023-03-11T12:51:42.100Z,26.79
2023-03-11T12:54:35.398Z,26.86
2023-03-11T12:57:33.734Z,27.00
2023-03-11T13:00:24.170Z,27.12
2023-03-11T13:03:15.800Z,27.30
2023-03-11T13:06:13.053Z,27.43
2023-03-11T13:08:56.436Z,27.55
2023-03-11T13:11:35.456Z,27.65
2023-03-11T13:14:17.360Z,27.81
2023-03-11T13:16:48.686Z,27.96
2023-03-11T13:19:36.150Z,27.99
2023-03-11T13:22:27.792Z,28.00
2023-03-11T13:24:57.987Z,28.12
2023-03-11T13:27:39.569Z,28.28
2023-03-11T13:30:35.338Z,28.45
2023-03-11T13:33:41.363Z,28.58
2023-03-11T13:36:21.026Z,28.67
2023-03-11T13:39:11.864Z,28.69
2023-03-11T13:41:48.780Z,28.72
2023-03-11T13:44:40.251Z,28.90
2023-03-11T13:47:17.306Z,28.96
2023-03-11T13:50:05.660Z,29.15
2023-03-11T13:52:41.179Z,29.13
2023-03-11T13:55:37.483Z,29.26
2023-03-11T13:58:24.573Z,29.32
2023-03-11T14:01:04.095Z,29.42
2023-03-11T14:03:45.240Z,29.39
2023-03-11T14:06:20.909Z,29.57
2023-03-11T14:08:59.286Z,29.76
2023-03-11T14:11:31.137Z,29.94
2023-03-11T14:14:03.019Z,29.91
2023-03-11T14:16:37.720Z,30.07
2023-03-11T14:19:19.116Z,30.20
2023-03-11T14:21:53.411Z,30.36
2023-03-11T14:24:31.753Z,30.59
2023-03-11T14:27:05.347Z,30.49
2023-03-11T14:29:45.063Z,30.65
2023-03-11T14:32:36.244Z,30.85
2023-03-11T14:35:26.628Z,30.96
2023-03-11T14:37:57.508Z,30.78
2023-03-11T14:40:43.241Z,30.97
2023-03-11T14:43:13.949Z,31.03
2023-03-11T14:45:45.506Z,31.29
2023-03-11T14:48:48.844Z,31.53
2023-03-11T14:51:23.925Z,31.06
2023-03-11T14:54:19.364Z,31.50
2023-03-11T14:57:01.826Z,31.74
2023-03-11T14:59:34.567Z,32.04
2023-03-11T15:02:39.839Z,32.08
2023-03-11T15:05:28.262Z,32.15
2023-03-11T15:08:04.156Z,32.16
2023-03-11T15:10:35.332Z,32.46
2023-03-11T15:13:12.441Z,32.35
2023-03-11T15:15:42.991Z,32.67
2023-03-11T15:18:30.179Z,32.93
2023-03-11T15:21:21.318Z,33.08
2023-03-11T15:23:54.491Z,32.94
2023-03-11T15:26:27.477Z,32.91
2023-03-11T15:29:07.094Z,32.94
2023-03-11T15:31:39.813Z,33.06
2023-03-11T15:34:20.316Z,33.16
2023-03-11T15:36:51.148Z,33.24
2023-03-11T15:39:22.766Z,33.07
2023-03-11T15:42:14.916Z,33.53
2023-03-11T15:45:01.378Z,33.99
2023-03-11T15:47:31.980Z,33.95
2023-03-11T15:50:23.596Z,33.68
2023-03-11T15:52:56.354Z,33.78
2023-03-11T15:55:28.546Z,33.85
2023-03-11T15:58:05.002Z,33.98
2023-03-11T16:00:36.018Z,33.79
2023-03-11T16:03:06.762Z,33.76
2023-03-11T16:05:37.037Z,33.71
2023-03-11T16:08:07.520Z,33.34
2023-03-11T16:10:38.572Z,33.53
2023-03-11T16:13:14.431Z,33.89
2023-03-11T16:15:47.069Z,33.44
2023-03-11T16:18:17.772Z,33.45
2023-03-11T16:20:55.591Z,33.69
2023-03-11T16:23:48.602Z,33.71
2023-03-11T16:26:23.355Z,33.58
2023-03-11T16:28:53.651Z,33.53
2023-03-11T16:31:23.905Z,34.04
2023-03-11T16:33:54.115Z,34.17
2023-03-11T16:36:24.396Z,34.57
2023-03-11T16:38:54.614Z,33.64
2023-03-11T16:41:24.701Z,32.75
2023-03-11T16:43:55.754Z,33.82
2023-03-11T16:46:26.066Z,34.09
2023-03-11T16:48:56.414Z,33.89
2023-03-11T16:51:26.535Z,34.04
2023-03-11T16:53:56.838Z,32.84
2023-03-11T16:56:27.645Z,33.43
2023-03-11T16:58:57.854Z,34.15
2023-03-11T17:01:28.224Z,34.17
2023-03-11T17:03:58.413Z,34.45
2023-03-11T17:06:28.575Z,34.49
2023-03-11T17:08:58.856Z,34.42
2023-03-11T17:11:30.748Z,34.43
2023-03-11T17:14:15.469Z,34.39
2023-03-11T17:16:46.960Z,34.08
2023-03-11T17:19:17.268Z,34.12
2023-03-11T17:21:47.747Z,34.01
2023-03-11T17:24:18.858Z,33.81
2023-03-11T17:26:50.211Z,34.19
2023-03-11T17:29:20.444Z,34.15
2023-03-11T17:31:50.499Z,34.16
2023-03-11T17:34:20.691Z,33.84
2023-03-11T17:36:50.607Z,33.67
2023-03-11T17:39:21.955Z,33.68
2023-03-11T17:41:53.156Z,33.82
2023-03-11T17:44:23.381Z,33.89
2023-03-11T17:46:53.650Z,33.88
2023-03-11T17:49:24.828Z,34.06
2023-03-11T17:51:55.154Z,33.91
2023-03-11T17:54:25.209Z,33.58
2023-03-11T17:56:57.075Z,33.54
2023-03-11T17:59:27.301Z,33.74
2023-03-11T18:01:57.424Z,33.82
2023-03-11T18:04:27.557Z,33.86
2023-03-11T18:06:57.787Z,33.89
2023-03-11T18:09:28.203Z,33.44
2023-03-11T18:11:58.356Z,33.34
2023-03-11T18:14:28.511Z,33.37
2023-03-11T18:16:58.764Z,33.40
2023-03-11T18:19:29.015Z,33.45
2023-03-11T18:21:59.264Z,33.26
2023-03-11T18:24:30.659Z,33.31
2023-03-11T18:27:00.723Z,33.30
2023-03-11T18:29:30.049Z,33.24
2023-03-11T18:32:00.141Z,32.99
2023-03-11T18:34:30.330Z,32.97
2023-03-11T18:37:00.492Z,33.16
2023-03-11T18:39:30.598Z,33.11
2023-03-11T18:42:00.645Z,33.16
2023-03-11T18:44:30.824Z,33.17
2023-03-11T18:47:00.681Z,33.08
2023-03-11T18:49:30.595Z,33.33
2023-03-11T18:52:00.448Z,33.43
2023-03-11T18:54:30.782Z,33.48
2023-03-11T18:57:00.981Z,34.71
2023-03-11T18:59:31.120Z,34.09
2023-03-11T19:02:01.097Z,33.91
2023-03-11T19:04:31.234Z,33.21
2023-03-11T19:07:01.473Z,33.16
2023-03-11T19:09:31.661Z,33.13
2023-03-11T19:12:01.645Z,33.04
2023-03-11T19:14:31.852Z,32.96
2023-03-11T19:17:01.938Z,33.10
2023-03-11T19:19:33.994Z,33.11
2023-03-11T19:22:04.118Z,33.16
2023-03-11T19:24:34.208Z,34.36
2023-03-11T19:27:04.784Z,35.07
2023-03-11T19:29:35.064Z,33.81
2023-03-11T19:32:05.281Z,33.53
2023-03-11T19:34:35.807Z,33.27
2023-03-11T19:37:07.541Z,32.94
2023-03-11T19:39:37.791Z,33.69
2023-03-11T19:42:07.794Z,33.20
2023-03-11T19:44:37.759Z,32.66
2023-03-11T19:47:07.834Z,32.16
2023-03-11T19:49:37.773Z,32.09
2023-03-11T19:52:11.000Z,32.06
2023-03-11T19:54:41.244Z,32.11
2023-03-11T19:57:11.574Z,31.99
2023-03-11T19:59:41.827Z,31.94
2023-03-11T20:02:15.870Z,31.67
2023-03-11T20:04:46.115Z,31.88
2023-03-11T20:07:16.459Z,32.09
2023-03-11T20:09:46.679Z,31.71
2023-03-11T20:12:17.248Z,31.53
2023-03-11T20:14:47.577Z,31.33
2023-03-11T20:17:17.996Z,31.23
2023-03-11T20:19:49.060Z,31.09
2023-03-11T20:22:19.304Z,31.10
2023-03-11T20:24:49.578Z,31.00
2023-03-11T20:27:20.107Z,30.86
2023-03-11T20:29:50.689Z,30.80
2023-03-11T20:32:20.684Z,31.47
2023-03-11T20:34:50.710Z,31.70
2023-03-11T20:37:20.810Z,33.31
2023-03-11T20:39:50.760Z,32.06
2023-03-11T20:42:20.981Z,32.99
2023-03-11T20:44:59.844Z,31.70
2023-03-11T20:47:30.159Z,31.34
2023-03-11T20:50:00.691Z,30.93
2023-03-11T20:52:36.837Z,30.51
2023-03-11T20:55:09.457Z,30.36
2023-03-11T20:57:40.438Z,31.23
2023-03-11T21:00:13.678Z,32.29
2023-03-11T21:02:45.012Z,30.95
2023-03-11T21:05:15.506Z,30.71
2023-03-11T21:07:45.644Z,31.50
2023-03-11T21:10:15.929Z,30.75
2023-03-11T21:12:46.211Z,30.25
2023-03-11T21:15:16.231Z,29.53
2023-03-11T21:17:46.497Z,29.22
2023-03-11T21:20:17.999Z,29.02
2023-03-11T21:22:48.265Z,28.76
2023-03-11T21:25:18.597Z,28.72
2023-03-11T21:27:49.192Z,28.58
2023-03-11T21:30:20.708Z,28.43
2023-03-11T21:32:54.935Z,28.27
2023-03-11T21:35:25.661Z,28.12
2023-03-11T21:37:57.451Z,28.00
2023-03-11T21:40:28.371Z,27.89
2023-03-11T21:42:59.066Z,27.82
2023-03-11T21:45:29.793Z,27.65
2023-03-11T21:48:00.116Z,27.52
2023-03-11T21:50:30.664Z,27.49
2023-03-11T21:53:01.052Z,27.42
2023-03-11T21:55:32.606Z,27.34
2023-03-11T21:58:04.669Z,27.28
2023-03-11T22:00:34.868Z,27.22
2023-03-11T22:03:05.548Z,27.12
2023-03-11T22:05:35.781Z,27.07
2023-03-11T22:08:05.565Z,27.01
2023-03-11T22:10:35.375Z,26.94
2023-03-11T22:13:05.939Z,26.88
2023-03-11T22:15:56.190Z,26.86
2023-03-11T22:18:26.384Z,26.79
2023-03-11T22:21:01.816Z,26.74
2023-03-11T22:23:32.346Z,26.73
2023-03-11T22:26:03.225Z,26.71
2023-03-11T22:28:33.857Z,26.63
2023-03-11T22:31:15.286Z,26.60
2023-03-11T22:33:45.570Z,26.61
2023-03-11T22:36:16.006Z,26.54
2023-03-11T22:38:46.558Z,26.51
2023-03-11T22:41:20.387Z,26.44
2023-03-11T22:43:50.593Z,26.43
2023-03-11T22:46:20.918Z,26.40
2023-03-11T22:48:51.073Z,26.37
2023-03-11T22:51:21.196Z,26.35
2023-03-11T22:53:51.402Z,26.33
2023-03-11T22:56:21.614Z,26.32
2023-03-11T22:58:52.546Z,26.30
2023-03-11T23:01:22.689Z,26.29
2023-03-11T23:03:52.864Z,26.29
2023-03-11T23:06:23.888Z,26.23
2023-03-11T23:08:54.107Z,26.18
2023-03-11T23:11:24.571Z,26.18
2023-03-11T23:13:55.855Z,26.10
2023-03-11T23:16:27.692Z,26.09
2023-03-11T23:18:58.537Z,26.08
2023-03-11T23:21:33.515Z,26.05
2023-03-11T23:24:06.294Z,25.96
2023-03-11T23:26:38.326Z,25.96
2023-03-11T23:29:09.094Z,25.96
2023-03-11T23:31:39.255Z,25.91
2023-03-11T23:34:09.465Z,25.84
2023-03-11T23:36:39.743Z,25.79
2023-03-11T23:39:09.995Z,25.79
2023-03-11T23:41:40.094Z,25.82
2023-03-11T23:44:09.698Z,25.84
2023-03-11T23:46:39.593Z,25.78
2023-03-11T23:49:10.544Z,25.77
2023-03-11T23:51:40.394Z,25.77
2023-03-11T23:54:10.102Z,25.75
2023-03-11T23:56:40.195Z,25.68
2023-03-11T23:59:10.296Z,25.67
